sensor_id;sensor_type;location;lat;lon;timestamp;P1;durP1;ratioP1;P2;durP2;ratioP2
50367;SDS011;36281;34.132;-118.018;2023-02-23T00:00:10;6.70;;;2.00;;
50367;SDS011;36281;34.132;-118.018;2023-02-23T00:02:51;6.60;;;2.33;;
50367;SDS011;36281;34.132;-118.018;2023-02-23T00:05:22;4.03;;;1.90;;
50367;SDS011;36281;34.132;-118.018;2023-02-23T00:07:52;4.40;;;1.70;;
50367;SDS011;36281;34.132;-118.018;2023-02-23T00:10:22;4.45;;;1.90;;
50367;SDS011;36281;34.132;-118.018;2023-02-23T00:12:57;3.00;;;1.90;;
50367;SDS011;36281;34.132;-118.018;2023-02-23T00:15:26;2.83;;;1.77;;
50367;SDS011;36281;34.132;-118.018;2023-02-23T00:17:58;6.63;;;1.90;;
50367;SDS011;36281;34.132;-118.018;2023-02-23T00:20:27;2.92;;;1.75;;
50367;SDS011;36281;34.132;-118.018;2023-02-23T00:22:56;5.65;;;2.00;;
50367;SDS011;36281;34.132;-118.018;2023-02-23T00:25:25;5.05;;;1.95;;
50367;SDS011;36281;34.132;-118.018;2023-02-23T00:27:57;5.03;;;2.10;;
50367;SDS011;36281;34.132;-118.018;2023-02-23T00:30:26;5.93;;;2.17;;
50367;SDS011;36281;34.132;-118.018;2023-02-23T00:32:55;5.68;;;2.20;;
50367;SDS011;36281;34.132;-118.018;2023-02-23T00:35:26;4.53;;;2.03;;
50367;SDS011;36281;34.132;-118.018;2023-02-23T00:37:55;4.47;;;1.65;;
50367;SDS011;36281;34.132;-118.018;2023-02-23T00:40:24;7.70;;;2.33;;
50367;SDS011;36281;34.132;-118.018;2023-02-23T00:42:53;4.03;;;1.80;;
50367;SDS011;36281;34.132;-118.018;2023-02-23T00:45:22;3.92;;;1.73;;
50367;SDS011;36281;34.132;-118.018;2023-02-23T00:47:51;4.07;;;2.17;;
50367;SDS011;36281;34.132;-118.018;2023-02-23T00:50:20;3.70;;;2.10;;
50367;SDS011;36281;34.132;-118.018;2023-02-23T00:52:51;5.72;;;2.20;;
50367;SDS011;36281;34.132;-118.018;2023-02-23T00:55:20;7.32;;;2.63;;
50367;SDS011;36281;34.132;-118.018;2023-02-23T00:57:49;8.82;;;2.92;;
50367;SDS011;36281;34.132;-118.018;2023-02-23T01:00:18;10.70;;;2.80;;
50367;SDS011;36281;34.132;-118.018;2023-02-23T01:02:48;12.93;;;2.78;;
50367;SDS011;36281;34.132;-118.018;2023-02-23T01:05:17;10.32;;;3.08;;
50367;SDS011;36281;34.132;-118.018;2023-02-23T01:07:47;7.57;;;2.75;;
50367;SDS011;36281;34.132;-118.018;2023-02-23T01:10:18;5.80;;;2.50;;
50367;SDS011;36281;34.132;-118.018;2023-02-23T01:12:47;9.57;;;3.17;;
50367;SDS011;36281;34.132;-118.018;2023-02-23T01:15:17;10.30;;;2.47;;
50367;SDS011;36281;34.132;-118.018;2023-02-23T01:17:47;11.50;;;3.22;;
50367;SDS011;36281;34.132;-118.018;2023-02-23T01:20:16;11.13;;;3.08;;
50367;SDS011;36281;34.132;-118.018;2023-02-23T01:22:48;7.28;;;2.72;;
50367;SDS011;36281;34.132;-118.018;2023-02-23T01:25:22;8.35;;;2.35;;
50367;SDS011;36281;34.132;-118.018;2023-02-23T01:27:55;5.55;;;2.63;;
50367;SDS011;36281;34.132;-118.018;2023-02-23T01:30:24;9.48;;;2.78;;
50367;SDS011;36281;34.132;-118.018;2023-02-23T01:32:53;6.40;;;2.50;;
50367;SDS011;36281;34.132;-118.018;2023-02-23T01:35:23;6.75;;;2.83;;
50367;SDS011;36281;34.132;-118.018;2023-02-23T01:37:51;9.40;;;2.70;;
50367;SDS011;36281;34.132;-118.018;2023-02-23T01:40:23;7.65;;;2.75;;
50367;SDS011;36281;34.132;-118.018;2023-02-23T01:42:56;6.25;;;2.53;;
50367;SDS011;36281;34.132;-118.018;2023-02-23T01:45:28;8.73;;;2.75;;
50367;SDS011;36281;34.132;-118.018;2023-02-23T01:48:02;11.13;;;2.88;;
50367;SDS011;36281;34.132;-118.018;2023-02-23T01:50:37;6.22;;;3.33;;
50367;SDS011;36281;34.132;-118.018;2023-02-23T01:53:10;8.18;;;2.67;;
50367;SDS011;36281;34.132;-118.018;2023-02-23T01:55:41;9.85;;;2.53;;
50367;SDS011;36281;34.132;-118.018;2023-02-23T01:58:11;10.43;;;3.08;;
50367;SDS011;36281;34.132;-118.018;2023-02-23T02:00:46;8.95;;;2.45;;
50367;SDS011;36281;34.132;-118.018;2023-02-23T02:03:25;5.55;;;2.67;;
50367;SDS011;36281;34.132;-118.018;2023-02-23T02:05:57;8.88;;;2.50;;
50367;SDS011;36281;34.132;-118.018;2023-02-23T02:08:28;7.47;;;2.80;;
50367;SDS011;36281;34.132;-118.018;2023-02-23T02:11:00;9.25;;;2.88;;
50367;SDS011;36281;34.132;-118.018;2023-02-23T02:13:36;8.73;;;2.70;;
50367;SDS011;36281;34.132;-118.018;2023-02-23T02:22:23;8.18;;;2.58;;
50367;SDS011;36281;34.132;-118.018;2023-02-23T02:25:23;6.72;;;2.40;;
50367;SDS011;36281;34.132;-118.018;2023-02-23T02:34:56;8.95;;;2.70;;
50367;SDS011;36281;34.132;-118.018;2023-02-23T02:40:25;10.55;;;2.97;;
50367;SDS011;36281;34.132;-118.018;2023-02-23T02:43:00;7.22;;;2.88;;
50367;SDS011;36281;34.132;-118.018;2023-02-23T02:45:39;7.78;;;3.05;;
50367;SDS011;36281;34.132;-118.018;2023-02-23T02:48:15;7.68;;;2.95;;
50367;SDS011;36281;34.132;-118.018;2023-02-23T02:50:53;8.35;;;3.05;;
50367;SDS011;36281;34.132;-118.018;2023-02-23T02:53:27;9.98;;;3.13;;
50367;SDS011;36281;34.132;-118.018;2023-02-23T02:56:07;7.90;;;3.00;;
50367;SDS011;36281;34.132;-118.018;2023-02-23T02:58:38;7.90;;;2.45;;
50367;SDS011;36281;34.132;-118.018;2023-02-23T03:01:11;9.35;;;3.15;;
50367;SDS011;36281;34.132;-118.018;2023-02-23T03:04:02;11.32;;;3.20;;
50367;SDS011;36281;34.132;-118.018;2023-02-23T03:07:05;11.02;;;3.20;;
50367;SDS011;36281;34.132;-118.018;2023-02-23T03:10:05;11.90;;;3.15;;
50367;SDS011;36281;34.132;-118.018;2023-02-23T03:13:02;7.25;;;2.60;;
50367;SDS011;36281;34.132;-118.018;2023-02-23T03:16:08;8.40;;;3.00;;
50367;SDS011;36281;34.132;-118.018;2023-02-23T03:19:08;8.32;;;3.00;;
50367;SDS011;36281;34.132;-118.018;2023-02-23T03:22:03;10.13;;;3.97;;
50367;SDS011;36281;34.132;-118.018;2023-02-23T03:24:58;5.82;;;2.80;;
50367;SDS011;36281;34.132;-118.018;2023-02-23T03:27:52;9.13;;;2.65;;
50367;SDS011;36281;34.132;-118.018;2023-02-23T03:30:45;6.55;;;2.55;;
50367;SDS011;36281;34.132;-118.018;2023-02-23T03:33:39;6.57;;;2.90;;
50367;SDS011;36281;34.132;-118.018;2023-02-23T03:36:32;10.85;;;3.45;;
50367;SDS011;36281;34.132;-118.018;2023-02-23T03:39:27;6.15;;;2.42;;
50367;SDS011;36281;34.132;-118.018;2023-02-23T03:42:20;5.97;;;2.40;;
50367;SDS011;36281;34.132;-118.018;2023-02-23T03:45:13;7.80;;;3.00;;
50367;SDS011;36281;34.132;-118.018;2023-02-23T03:48:04;5.22;;;2.35;;
50367;SDS011;36281;34.132;-118.018;2023-02-23T03:50:56;3.80;;;2.20;;
50367;SDS011;36281;34.132;-118.018;2023-02-23T03:53:47;5.40;;;2.58;;
50367;SDS011;36281;34.132;-118.018;2023-02-23T03:56:40;6.38;;;2.47;;
50367;SDS011;36281;34.132;-118.018;2023-02-23T03:59:33;6.60;;;2.53;;
50367;SDS011;36281;34.132;-118.018;2023-02-23T04:02:25;7.65;;;2.40;;
50367;SDS011;36281;34.132;-118.018;2023-02-23T04:05:16;6.72;;;2.15;;
50367;SDS011;36281;34.132;-118.018;2023-02-23T04:08:05;4.07;;;2.10;;
50367;SDS011;36281;34.132;-118.018;2023-02-23T04:10:58;6.15;;;2.08;;
50367;SDS011;36281;34.132;-118.018;2023-02-23T04:13:50;8.02;;;2.80;;
50367;SDS011;36281;34.132;-118.018;2023-02-23T04:16:25;7.22;;;2.53;;
50367;SDS011;36281;34.132;-118.018;2023-02-23T04:18:59;5.30;;;2.63;;
50367;SDS011;36281;34.132;-118.018;2023-02-23T04:21:29;7.78;;;2.80;;
50367;SDS011;36281;34.132;-118.018;2023-02-23T04:23:59;8.82;;;3.22;;
50367;SDS011;36281;34.132;-118.018;2023-02-23T04:26:28;5.72;;;2.30;;
50367;SDS011;36281;34.132;-118.018;2023-02-23T04:28:57;7.47;;;2.45;;
50367;SDS011;36281;34.132;-118.018;2023-02-23T04:31:26;6.15;;;2.78;;
50367;SDS011;36281;34.132;-118.018;2023-02-23T04:33:55;6.53;;;2.80;;
50367;SDS011;36281;34.132;-118.018;2023-02-23T04:36:25;5.90;;;2.88;;
50367;SDS011;36281;34.132;-118.018;2023-02-23T04:38:55;6.00;;;2.50;;
50367;SDS011;36281;34.132;-118.018;2023-02-23T04:41:24;4.93;;;3.25;;
50367;SDS011;36281;34.132;-118.018;2023-02-23T04:43:53;6.30;;;2.85;;
50367;SDS011;36281;34.132;-118.018;2023-02-23T04:46:22;8.90;;;3.00;;
50367;SDS011;36281;34.132;-118.018;2023-02-23T04:48:51;7.93;;;2.58;;
50367;SDS011;36281;34.132;-118.018;2023-02-23T04:51:20;6.90;;;2.92;;
50367;SDS011;36281;34.132;-118.018;2023-02-23T04:53:51;6.53;;;2.70;;
50367;SDS011;36281;34.132;-118.018;2023-02-23T04:56:20;9.60;;;3.10;;
50367;SDS011;36281;34.132;-118.018;2023-02-23T04:58:49;9.00;;;3.58;;
50367;SDS011;36281;34.132;-118.018;2023-02-23T05:01:18;7.93;;;3.20;;
50367;SDS011;36281;34.132;-118.018;2023-02-23T05:03:48;8.50;;;3.13;;
50367;SDS011;36281;34.132;-118.018;2023-02-23T05:06:18;10.20;;;3.30;;
50367;SDS011;36281;34.132;-118.018;2023-02-23T05:08:50;8.55;;;2.97;;
50367;SDS011;36281;34.132;-118.018;2023-02-23T05:11:19;8.02;;;2.88;;
50367;SDS011;36281;34.132;-118.018;2023-02-23T05:13:48;6.93;;;3.40;;
50367;SDS011;36281;34.132;-118.018;2023-02-23T05:16:17;8.52;;;3.75;;
50367;SDS011;36281;34.132;-118.018;2023-02-23T05:18:46;6.30;;;3.80;;
50367;SDS011;36281;34.132;-118.018;2023-02-23T05:21:16;9.55;;;4.03;;
50367;SDS011;36281;34.132;-118.018;2023-02-23T05:23:45;8.82;;;4.25;;
50367;SDS011;36281;34.132;-118.018;2023-02-23T05:26:16;5.50;;;3.75;;
50367;SDS011;36281;34.132;-118.018;2023-02-23T05:28:45;11.57;;;4.30;;
50367;SDS011;36281;34.132;-118.018;2023-02-23T05:31:15;11.85;;;4.43;;
50367;SDS011;36281;34.132;-118.018;2023-02-23T05:33:44;8.90;;;3.95;;
50367;SDS011;36281;34.132;-118.018;2023-02-23T05:36:14;7.28;;;4.15;;
50367;SDS011;36281;34.132;-118.018;2023-02-23T05:38:45;5.75;;;3.80;;
50367;SDS011;36281;34.132;-118.018;2023-02-23T05:41:17;10.32;;;4.25;;
50367;SDS011;36281;34.132;-118.018;2023-02-23T05:43:48;9.98;;;4.22;;
50367;SDS011;36281;34.132;-118.018;2023-02-23T05:46:20;8.63;;;4.68;;
50367;SDS011;36281;34.132;-118.018;2023-02-23T05:48:54;13.70;;;4.00;;
50367;SDS011;36281;34.132;-118.018;2023-02-23T05:51:24;8.60;;;3.72;;
50367;SDS011;36281;34.132;-118.018;2023-02-23T05:53:54;9.10;;;3.40;;
50367;SDS011;36281;34.132;-118.018;2023-02-23T05:56:25;8.60;;;3.78;;
50367;SDS011;36281;34.132;-118.018;2023-02-23T05:58:54;11.65;;;4.13;;
50367;SDS011;36281;34.132;-118.018;2023-02-23T06:01:25;8.98;;;4.00;;
50367;SDS011;36281;34.132;-118.018;2023-02-23T06:03:54;8.13;;;3.65;;
50367;SDS011;36281;34.132;-118.018;2023-02-23T06:06:23;6.07;;;3.28;;
50367;SDS011;36281;34.132;-118.018;2023-02-23T06:08:53;8.85;;;3.60;;
50367;SDS011;36281;34.132;-118.018;2023-02-23T06:11:22;9.77;;;3.15;;
50367;SDS011;36281;34.132;-118.018;2023-02-23T06:13:53;9.63;;;3.33;;
50367;SDS011;36281;34.132;-118.018;2023-02-23T06:16:22;9.13;;;3.08;;
50367;SDS011;36281;34.132;-118.018;2023-02-23T06:18:51;11.60;;;3.50;;
50367;SDS011;36281;34.132;-118.018;2023-02-23T06:21:20;9.30;;;3.20;;
50367;SDS011;36281;34.132;-118.018;2023-02-23T06:23:49;9.10;;;3.35;;
50367;SDS011;36281;34.132;-118.018;2023-02-23T06:26:20;9.15;;;3.58;;
50367;SDS011;36281;34.132;-118.018;2023-02-23T06:28:49;10.02;;;4.05;;
50367;SDS011;36281;34.132;-118.018;2023-02-23T06:31:19;9.35;;;3.50;;
50367;SDS011;36281;34.132;-118.018;2023-02-23T06:33:48;8.75;;;3.25;;
50367;SDS011;36281;34.132;-118.018;2023-02-23T06:36:17;11.07;;;3.60;;
50367;SDS011;36281;34.132;-118.018;2023-02-23T06:38:47;11.75;;;3.30;;
50367;SDS011;36281;34.132;-118.018;2023-02-23T06:41:16;8.30;;;3.40;;
50367;SDS011;36281;34.132;-118.018;2023-02-23T06:43:45;9.57;;;3.40;;
50367;SDS011;36281;34.132;-118.018;2023-02-23T06:46:14;11.35;;;3.40;;
50367;SDS011;36281;34.132;-118.018;2023-02-23T06:48:45;7.72;;;3.20;;
50367;SDS011;36281;34.132;-118.018;2023-02-23T06:51:14;9.45;;;3.88;;
50367;SDS011;36281;34.132;-118.018;2023-02-23T06:53:44;8.15;;;3.80;;
50367;SDS011;36281;34.132;-118.018;2023-02-23T06:56:13;8.25;;;3.42;;
50367;SDS011;36281;34.132;-118.018;2023-02-23T06:58:42;8.40;;;3.40;;
50367;SDS011;36281;34.132;-118.018;2023-02-23T07:01:11;8.40;;;3.55;;
50367;SDS011;36281;34.132;-118.018;2023-02-23T07:03:40;8.93;;;3.85;;
50367;SDS011;36281;34.132;-118.018;2023-02-23T07:06:11;9.98;;;3.72;;
50367;SDS011;36281;34.132;-118.018;2023-02-23T07:08:40;8.70;;;3.35;;
50367;SDS011;36281;34.132;-118.018;2023-02-23T07:11:09;12.02;;;3.40;;
50367;SDS011;36281;34.132;-118.018;2023-02-23T07:13:40;8.50;;;3.28;;
50367;SDS011;36281;34.132;-118.018;2023-02-23T07:16:09;9.80;;;3.30;;
50367;SDS011;36281;34.132;-118.018;2023-02-23T07:18:41;7.80;;;2.90;;
50367;SDS011;36281;34.132;-118.018;2023-02-23T07:21:11;6.68;;;2.80;;
50367;SDS011;36281;34.132;-118.018;2023-02-23T07:23:40;10.13;;;3.55;;
50367;SDS011;36281;34.132;-118.018;2023-02-23T07:26:09;7.55;;;2.80;;
50367;SDS011;36281;34.132;-118.018;2023-02-23T07:28:42;11.13;;;3.40;;
50367;SDS011;36281;34.132;-118.018;2023-02-23T07:31:11;7.32;;;3.42;;
50367;SDS011;36281;34.132;-118.018;2023-02-23T07:33:40;9.40;;;3.40;;
50367;SDS011;36281;34.132;-118.018;2023-02-23T07:36:11;5.15;;;3.30;;
50367;SDS011;36281;34.132;-118.018;2023-02-23T07:38:40;8.18;;;3.30;;
50367;SDS011;36281;34.132;-118.018;2023-02-23T07:41:09;9.23;;;3.33;;
50367;SDS011;36281;34.132;-118.018;2023-02-23T07:43:38;9.30;;;3.10;;
50367;SDS011;36281;34.132;-118.018;2023-02-23T07:46:07;9.48;;;3.10;;
50367;SDS011;36281;34.132;-118.018;2023-02-23T07:48:37;10.55;;;3.33;;
50367;SDS011;36281;34.132;-118.018;2023-02-23T07:51:12;6.15;;;2.90;;
50367;SDS011;36281;34.132;-118.018;2023-02-23T07:53:44;8.13;;;3.25;;
50367;SDS011;36281;34.132;-118.018;2023-02-23T07:56:13;12.20;;;3.30;;
50367;SDS011;36281;34.132;-118.018;2023-02-23T07:58:42;5.75;;;2.92;;
50367;SDS011;36281;34.132;-118.018;2023-02-23T08:01:11;8.25;;;3.47;;
50367;SDS011;36281;34.132;-118.018;2023-02-23T08:03:41;8.00;;;3.47;;
50367;SDS011;36281;34.132;-118.018;2023-02-23T08:06:17;6.43;;;2.70;;
50367;SDS011;36281;34.132;-118.018;2023-02-23T08:08:47;6.13;;;3.33;;
50367;SDS011;36281;34.132;-118.018;2023-02-23T08:11:16;7.13;;;3.50;;
50367;SDS011;36281;34.132;-118.018;2023-02-23T08:13:46;8.23;;;2.80;;
50367;SDS011;36281;34.132;-118.018;2023-02-23T08:16:15;11.27;;;3.05;;
50367;SDS011;36281;34.132;-118.018;2023-02-23T08:18:45;8.95;;;3.75;;
50367;SDS011;36281;34.132;-118.018;2023-02-23T08:21:14;5.82;;;2.65;;
50367;SDS011;36281;34.132;-118.018;2023-02-23T08:23:45;8.18;;;3.30;;
50367;SDS011;36281;34.132;-118.018;2023-02-23T08:26:14;6.63;;;2.50;;
50367;SDS011;36281;34.132;-118.018;2023-02-23T08:28:43;7.75;;;2.60;;
50367;SDS011;36281;34.132;-118.018;2023-02-23T08:31:13;6.55;;;2.65;;
50367;SDS011;36281;34.132;-118.018;2023-02-23T08:33:45;6.43;;;2.50;;
50367;SDS011;36281;34.132;-118.018;2023-02-23T08:36:14;5.65;;;2.58;;
50367;SDS011;36281;34.132;-118.018;2023-02-23T08:38:45;4.43;;;2.38;;
50367;SDS011;36281;34.132;-118.018;2023-02-23T08:41:14;8.25;;;2.70;;
50367;SDS011;36281;34.132;-118.018;2023-02-23T08:43:44;8.00;;;2.60;;
50367;SDS011;36281;34.132;-118.018;2023-02-23T08:46:13;7.45;;;2.85;;
50367;SDS011;36281;34.132;-118.018;2023-02-23T08:48:45;4.82;;;2.30;;
50367;SDS011;36281;34.132;-118.018;2023-02-23T08:51:14;4.13;;;2.30;;
50367;SDS011;36281;34.132;-118.018;2023-02-23T08:53:45;6.85;;;2.30;;
50367;SDS011;36281;34.132;-118.018;2023-02-23T08:56:14;4.55;;;2.40;;
50367;SDS011;36281;34.132;-118.018;2023-02-23T08:58:43;6.53;;;2.58;;
50367;SDS011;36281;34.132;-118.018;2023-02-23T09:01:14;4.88;;;2.45;;
50367;SDS011;36281;34.132;-118.018;2023-02-23T09:03:45;4.72;;;2.60;;
50367;SDS011;36281;34.132;-118.018;2023-02-23T09:06:15;4.15;;;2.55;;
50367;SDS011;36281;34.132;-118.018;2023-02-23T09:08:48;9.55;;;3.30;;
50367;SDS011;36281;34.132;-118.018;2023-02-23T09:11:17;6.05;;;3.08;;
50367;SDS011;36281;34.132;-118.018;2023-02-23T09:13:46;4.88;;;2.60;;
50367;SDS011;36281;34.132;-118.018;2023-02-23T09:16:15;6.15;;;2.88;;
50367;SDS011;36281;34.132;-118.018;2023-02-23T09:18:45;6.28;;;3.00;;
50367;SDS011;36281;34.132;-118.018;2023-02-23T09:21:14;4.53;;;2.70;;
50367;SDS011;36281;34.132;-118.018;2023-02-23T09:23:54;6.22;;;2.78;;
50367;SDS011;36281;34.132;-118.018;2023-02-23T09:26:23;7.57;;;3.30;;
50367;SDS011;36281;34.132;-118.018;2023-02-23T09:28:57;7.68;;;2.97;;
50367;SDS011;36281;34.132;-118.018;2023-02-23T09:31:28;9.35;;;2.90;;
50367;SDS011;36281;34.132;-118.018;2023-02-23T09:33:57;8.27;;;2.85;;
50367;SDS011;36281;34.132;-118.018;2023-02-23T09:36:29;5.95;;;3.13;;
50367;SDS011;36281;34.132;-118.018;2023-02-23T09:39:00;4.90;;;2.42;;
50367;SDS011;36281;34.132;-118.018;2023-02-23T09:44:34;5.70;;;2.80;;
50367;SDS011;36281;34.132;-118.018;2023-02-23T09:47:24;5.05;;;2.40;;
50367;SDS011;36281;34.132;-118.018;2023-02-23T09:49:59;5.18;;;2.80;;
50367;SDS011;36281;34.132;-118.018;2023-02-23T09:52:35;9.20;;;2.92;;
50367;SDS011;36281;34.132;-118.018;2023-02-23T09:55:10;11.35;;;3.80;;
50367;SDS011;36281;34.132;-118.018;2023-02-23T09:57:42;7.13;;;3.13;;
50367;SDS011;36281;34.132;-118.018;2023-02-23T10:00:15;7.18;;;3.10;;
50367;SDS011;36281;34.132;-118.018;2023-02-23T10:02:51;6.53;;;3.03;;
50367;SDS011;36281;34.132;-118.018;2023-02-23T10:05:30;5.32;;;2.92;;
50367;SDS011;36281;34.132;-118.018;2023-02-23T10:08:06;9.32;;;3.20;;
50367;SDS011;36281;34.132;-118.018;2023-02-23T10:10:44;5.07;;;2.58;;
50367;SDS011;36281;34.132;-118.018;2023-02-23T10:13:18;9.10;;;3.25;;
50367;SDS011;36281;34.132;-118.018;2023-02-23T10:15:57;5.32;;;2.67;;
50367;SDS011;36281;34.132;-118.018;2023-02-23T10:18:35;11.63;;;3.80;;
50367;SDS011;36281;34.132;-118.018;2023-02-23T10:21:14;6.80;;;3.13;;
50367;SDS011;36281;34.132;-118.018;2023-02-23T10:23:49;7.47;;;2.90;;
50367;SDS011;36281;34.132;-118.018;2023-02-23T10:26:23;8.30;;;2.75;;
50367;SDS011;36281;34.132;-118.018;2023-02-23T10:28:54;8.57;;;3.22;;
50367;SDS011;36281;34.132;-118.018;2023-02-23T10:31:26;7.75;;;2.97;;
50367;SDS011;36281;34.132;-118.018;2023-02-23T10:34:02;8.07;;;3.63;;
50367;SDS011;36281;34.132;-118.018;2023-02-23T10:36:34;7.60;;;2.90;;
50367;SDS011;36281;34.132;-118.018;2023-02-23T10:39:05;7.63;;;2.75;;
50367;SDS011;36281;34.132;-118.018;2023-02-23T10:41:37;7.57;;;2.70;;
50367;SDS011;36281;34.132;-118.018;2023-02-23T10:44:10;7.68;;;2.70;;
50367;SDS011;36281;34.132;-118.018;2023-02-23T10:46:46;8.82;;;3.03;;
50367;SDS011;36281;34.132;-118.018;2023-02-23T10:49:21;4.87;;;2.90;;
50367;SDS011;36281;34.132;-118.018;2023-02-23T10:51:56;12.90;;;3.15;;
50367;SDS011;36281;34.132;-118.018;2023-02-23T10:54:39;4.45;;;2.70;;
50367;SDS011;36281;34.132;-118.018;2023-02-23T10:57:23;5.20;;;2.40;;
50367;SDS011;36281;34.132;-118.018;2023-02-23T11:03:00;6.75;;;2.80;;
50367;SDS011;36281;34.132;-118.018;2023-02-23T11:05:32;6.50;;;2.80;;
50367;SDS011;36281;34.132;-118.018;2023-02-23T11:13:49;6.20;;;2.90;;
50367;SDS011;36281;34.132;-118.018;2023-02-23T11:16:19;8.02;;;3.10;;
50367;SDS011;36281;34.132;-118.018;2023-02-23T11:18:52;7.93;;;3.35;;
50367;SDS011;36281;34.132;-118.018;2023-02-23T11:21:24;7.47;;;3.47;;
50367;SDS011;36281;34.132;-118.018;2023-02-23T11:23:56;6.28;;;3.30;;
50367;SDS011;36281;34.132;-118.018;2023-02-23T11:26:34;7.18;;;3.20;;
50367;SDS011;36281;34.132;-118.018;2023-02-23T11:29:12;4.97;;;2.65;;
50367;SDS011;36281;34.132;-118.018;2023-02-23T11:31:47;6.65;;;3.15;;
50367;SDS011;36281;34.132;-118.018;2023-02-23T11:34:20;6.18;;;2.90;;
50367;SDS011;36281;34.132;-118.018;2023-02-23T11:37:00;5.07;;;2.65;;
50367;SDS011;36281;34.132;-118.018;2023-02-23T11:39:31;7.90;;;3.00;;
50367;SDS011;36281;34.132;-118.018;2023-02-23T11:42:14;4.57;;;2.60;;
50367;SDS011;36281;34.132;-118.018;2023-02-23T11:45:02;4.40;;;2.55;;
50367;SDS011;36281;34.132;-118.018;2023-02-23T11:47:33;5.80;;;2.70;;
50367;SDS011;36281;34.132;-118.018;2023-02-23T11:50:07;5.90;;;2.33;;
50367;SDS011;36281;34.132;-118.018;2023-02-23T11:52:51;7.03;;;2.28;;
50367;SDS011;36281;34.132;-118.018;2023-02-23T11:55:28;4.78;;;2.05;;
50367;SDS011;36281;34.132;-118.018;2023-02-23T11:58:16;5.38;;;1.90;;
50367;SDS011;36281;34.132;-118.018;2023-02-23T12:00:55;4.25;;;1.95;;
50367;SDS011;36281;34.132;-118.018;2023-02-23T12:03:26;3.10;;;1.67;;
50367;SDS011;36281;34.132;-118.018;2023-02-23T12:05:57;14.25;;;2.50;;
50367;SDS011;36281;34.132;-118.018;2023-02-23T12:08:33;3.50;;;1.85;;
50367;SDS011;36281;34.132;-118.018;2023-02-23T12:11:09;3.75;;;2.20;;
50367;SDS011;36281;34.132;-118.018;2023-02-23T12:13:42;4.03;;;2.20;;
50367;SDS011;36281;34.132;-118.018;2023-02-23T12:16:17;3.47;;;2.33;;
50367;SDS011;36281;34.132;-118.018;2023-02-23T12:18:51;3.75;;;2.33;;
50367;SDS011;36281;34.132;-118.018;2023-02-23T12:21:27;4.13;;;2.50;;
50367;SDS011;36281;34.132;-118.018;2023-02-23T12:24:09;6.55;;;2.65;;
50367;SDS011;36281;34.132;-118.018;2023-02-23T12:26:46;6.93;;;2.72;;
50367;SDS011;36281;34.132;-118.018;2023-02-23T12:29:20;6.43;;;2.60;;
50367;SDS011;36281;34.132;-118.018;2023-02-23T12:31:58;3.47;;;2.05;;
50367;SDS011;36281;34.132;-118.018;2023-02-23T12:34:31;3.65;;;2.33;;
50367;SDS011;36281;34.132;-118.018;2023-02-23T12:37:11;8.68;;;2.65;;
50367;SDS011;36281;34.132;-118.018;2023-02-23T12:40:06;5.78;;;2.40;;
50367;SDS011;36281;34.132;-118.018;2023-02-23T12:42:48;5.88;;;2.50;;
50367;SDS011;36281;34.132;-118.018;2023-02-23T12:45:28;3.25;;;2.10;;
50367;SDS011;36281;34.132;-118.018;2023-02-23T12:48:07;3.85;;;2.05;;
50367;SDS011;36281;34.132;-118.018;2023-02-23T12:50:49;4.57;;;2.25;;
50367;SDS011;36281;34.132;-118.018;2023-02-23T12:53:21;4.07;;;2.17;;
50367;SDS011;36281;34.132;-118.018;2023-02-23T12:56:02;5.03;;;2.08;;
50367;SDS011;36281;34.132;-118.018;2023-02-23T12:58:40;3.28;;;1.95;;
50367;SDS011;36281;34.132;-118.018;2023-02-23T13:01:17;6.45;;;2.47;;
50367;SDS011;36281;34.132;-118.018;2023-02-23T13:06:59;5.43;;;2.20;;
50367;SDS011;36281;34.132;-118.018;2023-02-23T13:09:37;4.20;;;2.20;;
50367;SDS011;36281;34.132;-118.018;2023-02-23T13:12:17;4.22;;;2.30;;
50367;SDS011;36281;34.132;-118.018;2023-02-23T13:14:58;5.18;;;2.42;;
50367;SDS011;36281;34.132;-118.018;2023-02-23T13:17:37;4.50;;;2.45;;
50367;SDS011;36281;34.132;-118.018;2023-02-23T13:20:16;5.38;;;2.35;;
50367;SDS011;36281;34.132;-118.018;2023-02-23T13:22:52;5.45;;;2.10;;
50367;SDS011;36281;34.132;-118.018;2023-02-23T13:25:31;4.13;;;2.10;;
50367;SDS011;36281;34.132;-118.018;2023-02-23T13:28:09;3.97;;;2.10;;
50367;SDS011;36281;34.132;-118.018;2023-02-23T13:30:44;3.60;;;2.10;;
50367;SDS011;36281;34.132;-118.018;2023-02-23T13:33:18;2.72;;;2.00;;
50367;SDS011;36281;34.132;-118.018;2023-02-23T13:36:09;3.10;;;1.90;;
50367;SDS011;36281;34.132;-118.018;2023-02-23T13:38:40;3.72;;;1.88;;
50367;SDS011;36281;34.132;-118.018;2023-02-23T13:41:23;3.83;;;2.10;;
50367;SDS011;36281;34.132;-118.018;2023-02-23T13:44:00;2.97;;;2.00;;
50367;SDS011;36281;34.132;-118.018;2023-02-23T13:46:39;2.63;;;1.90;;
50367;SDS011;36281;34.132;-118.018;2023-02-23T13:49:17;3.55;;;2.13;;
50367;SDS011;36281;34.132;-118.018;2023-02-23T13:52:07;6.20;;;3.15;;
50367;SDS011;36281;34.132;-118.018;2023-02-23T13:54:50;4.35;;;2.47;;
50367;SDS011;36281;34.132;-118.018;2023-02-23T13:57:23;4.00;;;2.10;;
50367;SDS011;36281;34.132;-118.018;2023-02-23T13:59:54;5.07;;;2.10;;
50367;SDS011;36281;34.132;-118.018;2023-02-23T14:02:32;4.30;;;2.05;;
50367;SDS011;36281;34.132;-118.018;2023-02-23T14:05:05;4.43;;;1.90;;
50367;SDS011;36281;34.132;-118.018;2023-02-23T14:07:45;5.28;;;2.50;;
50367;SDS011;36281;34.132;-118.018;2023-02-23T14:10:19;4.68;;;2.03;;
50367;SDS011;36281;34.132;-118.018;2023-02-23T14:13:03;4.55;;;2.17;;
50367;SDS011;36281;34.132;-118.018;2023-02-23T14:15:42;3.05;;;1.85;;
50367;SDS011;36281;34.132;-118.018;2023-02-23T14:18:29;4.00;;;2.08;;
50367;SDS011;36281;34.132;-118.018;2023-02-23T14:21:04;4.32;;;2.10;;
50367;SDS011;36281;34.132;-118.018;2023-02-23T14:23:51;3.40;;;2.15;;
50367;SDS011;36281;34.132;-118.018;2023-02-23T14:26:36;4.60;;;2.20;;
50367;SDS011;36281;34.132;-118.018;2023-02-23T14:29:24;5.70;;;1.95;;
50367;SDS011;36281;34.132;-118.018;2023-02-23T14:31:59;3.97;;;1.92;;
50367;SDS011;36281;34.132;-118.018;2023-02-23T14:34:44;4.45;;;1.85;;
50367;SDS011;36281;34.132;-118.018;2023-02-23T14:37:21;7.85;;;2.42;;
50367;SDS011;36281;34.132;-118.018;2023-02-23T14:39:54;4.13;;;2.10;;
50367;SDS011;36281;34.132;-118.018;2023-02-23T14:42:28;3.03;;;2.03;;
50367;SDS011;36281;34.132;-118.018;2023-02-23T14:45:02;6.47;;;2.08;;
50367;SDS011;36281;34.132;-118.018;2023-02-23T14:47:40;3.42;;;2.10;;
50367;SDS011;36281;34.132;-118.018;2023-02-23T14:50:14;4.70;;;2.13;;
50367;SDS011;36281;34.132;-118.018;2023-02-23T14:52:50;3.75;;;2.33;;
50367;SDS011;36281;34.132;-118.018;2023-02-23T14:55:25;4.63;;;2.47;;
50367;SDS011;36281;34.132;-118.018;2023-02-23T14:57:55;4.22;;;2.63;;
50367;SDS011;36281;34.132;-118.018;2023-02-23T15:00:26;4.22;;;2.15;;
50367;SDS011;36281;34.132;-118.018;2023-02-23T15:02:59;6.95;;;2.50;;
50367;SDS011;36281;34.132;-118.018;2023-02-23T15:05:30;4.53;;;2.33;;
50367;SDS011;36281;34.132;-118.018;2023-02-23T15:08:02;4.50;;;2.50;;
50367;SDS011;36281;34.132;-118.018;2023-02-23T15:10:35;5.55;;;2.58;;
50367;SDS011;36281;34.132;-118.018;2023-02-23T15:13:09;5.70;;;2.45;;
50367;SDS011;36281;34.132;-118.018;2023-02-23T15:15:43;3.97;;;2.10;;
50367;SDS011;36281;34.132;-118.018;2023-02-23T15:18:17;6.38;;;2.40;;
50367;SDS011;36281;34.132;-118.018;2023-02-23T15:20:51;5.60;;;2.22;;